createdAt,value
2022-12-14T00:03:29.909Z,11.48
2022-12-14T00:08:54.387Z,12.55
2022-12-14T00:14:17.557Z,13.02
2022-12-14T00:19:40.175Z,15.10
2022-12-14T00:25:03.247Z,14.65
2022-12-14T00:30:25.611Z,14.60
2022-12-14T00:35:51.151Z,8.32
2022-12-14T00:41:16.778Z,18.67
2022-12-14T00:46:39.255Z,13.02
2022-12-14T00:52:03.958Z,10.85
2022-12-14T00:57:36.094Z,14.68
2022-12-14T01:02:58.308Z,11.40
2022-12-14T01:08:20.185Z,10.93
2022-12-14T01:13:42.806Z,12.50
2022-12-14T01:19:05.226Z,15.35
2022-12-14T01:24:27.358Z,12.43
2022-12-14T01:29:49.017Z,11.75
2022-12-14T01:35:11.068Z,9.95
2022-12-14T01:40:33.132Z,10.05
2022-12-14T01:45:56.868Z,9.32
2022-12-14T01:51:19.205Z,9.15
2022-12-14T01:56:43.509Z,15.68
2022-12-14T02:02:09.219Z,9.80
2022-12-14T02:07:32.169Z,15.38
2022-12-14T02:13:04.934Z,8.57
2022-12-14T02:18:29.532Z,15.30
2022-12-14T02:24:18.968Z,11.30
2022-12-14T02:29:59.010Z,16.95
2022-12-14T02:35:45.128Z,12.32
2022-12-14T02:41:14.332Z,13.43
2022-12-14T02:52:50.861Z,13.02
2022-12-14T02:58:47.321Z,10.73
2022-12-14T03:04:14.971Z,12.27
2022-12-14T03:09:44.058Z,9.45
2022-12-14T03:15:12.171Z,12.40
2022-12-14T03:20:37.147Z,11.00
2022-12-14T03:26:10.409Z,13.10
2022-12-14T03:32:01.787Z,8.70
2022-12-14T03:37:31.413Z,9.48
2022-12-14T03:49:27.892Z,10.10
2022-12-14T03:55:08.211Z,10.73
2022-12-14T04:00:37.189Z,9.18
2022-12-14T04:06:44.170Z,10.88
2022-12-14T04:12:51.466Z,13.77
2022-12-14T04:18:39.359Z,10.73
2022-12-14T04:24:56.541Z,11.18
2022-12-14T04:30:18.771Z,9.68
2022-12-14T04:35:44.338Z,9.98
2022-12-14T04:41:09.946Z,8.32
2022-12-14T04:46:40.530Z,11.02
2022-12-14T04:52:08.798Z,12.60
2022-12-14T04:57:54.587Z,9.45
2022-12-14T05:03:35.662Z,11.70
2022-12-14T05:09:03.980Z,9.88
2022-12-14T05:14:45.846Z,12.65
2022-12-14T05:20:18.647Z,10.43
2022-12-14T05:25:41.019Z,14.00
2022-12-14T05:31:04.751Z,14.63
2022-12-14T05:36:28.475Z,11.50
2022-12-14T05:41:53.941Z,10.32
2022-12-14T05:47:22.030Z,10.20
2022-12-14T05:52:47.911Z,13.40
2022-12-14T05:58:10.612Z,14.57
2022-12-14T06:03:33.309Z,14.43
2022-12-14T06:08:55.968Z,7.70
2022-12-14T06:14:21.198Z,12.98
2022-12-14T06:19:50.359Z,15.27
2022-12-14T06:25:20.928Z,17.73
2022-12-14T06:30:51.125Z,13.57
2022-12-14T06:36:25.049Z,23.63
2022-12-14T06:41:51.534Z,13.75
2022-12-14T06:47:19.425Z,17.35
2022-12-14T06:52:44.492Z,13.55
2022-12-14T06:58:16.258Z,13.98
2022-12-14T07:03:38.460Z,18.93
2022-12-14T07:09:01.241Z,15.60
2022-12-14T07:14:25.913Z,14.38
2022-12-14T07:19:49.162Z,17.85
2022-12-14T07:25:11.558Z,17.95
2022-12-14T07:30:34.541Z,11.13
2022-12-14T07:36:11.286Z,13.50
2022-12-14T07:41:33.614Z,15.30
2022-12-14T07:46:55.698Z,17.75
2022-12-14T07:52:17.785Z,15.02
2022-12-14T07:57:50.478Z,13.45
2022-12-14T08:03:12.489Z,19.88
2022-12-14T08:08:35.457Z,15.38
2022-12-14T08:13:59.768Z,11.88
2022-12-14T08:19:22.108Z,17.25
2022-12-14T08:24:44.254Z,13.63
2022-12-14T08:30:11.300Z,15.88
2022-12-14T08:35:34.629Z,14.60
2022-12-14T08:40:56.767Z,19.15
2022-12-14T08:46:19.392Z,12.63
2022-12-14T08:51:43.039Z,10.68
2022-12-14T08:57:05.767Z,17.15
2022-12-14T09:02:28.238Z,14.32
2022-12-14T09:07:50.478Z,15.18
2022-12-14T09:13:12.460Z,11.13
2022-12-14T09:18:35.253Z,13.93
2022-12-14T09:23:59.580Z,8.75
2022-12-14T09:29:22.177Z,6.10
2022-12-14T09:34:43.890Z,12.45
2022-12-14T09:40:07.747Z,11.48
2022-12-14T09:45:48.285Z,9.27
2022-12-14T09:51:17.289Z,12.18
2022-12-14T09:56:41.028Z,15.57
2022-12-14T10:02:33.018Z,13.77
2022-12-14T10:08:10.101Z,10.80
2022-12-14T10:13:54.420Z,5.28
2022-12-14T10:19:34.188Z,5.45
2022-12-14T10:25:06.337Z,4.60
2022-12-14T10:30:29.049Z,16.00
2022-12-14T10:36:09.137Z,6.68
2022-12-14T10:41:42.711Z,9.60
2022-12-14T10:47:33.660Z,9.23
2022-12-14T10:52:57.779Z,9.15
2022-12-14T10:58:19.849Z,3.00
2022-12-14T11:03:42.896Z,13.98
2022-12-14T11:09:21.709Z,5.85
2022-12-14T11:15:06.681Z,9.10
2022-12-14T11:20:29.748Z,12.10
2022-12-14T11:25:56.678Z,8.35
2022-12-14T11:31:21.744Z,6.22
2022-12-14T11:36:44.231Z,9.48
2022-12-14T11:42:07.348Z,10.95
2022-12-14T11:47:29.728Z,3.90
2022-12-14T11:52:51.617Z,14.20
2022-12-14T11:58:28.720Z,3.67
2022-12-14T12:03:54.770Z,5.95
2022-12-14T12:09:31.741Z,6.30
2022-12-14T12:14:56.783Z,9.85
2022-12-14T12:20:30.646Z,9.32
2022-12-14T12:25:55.099Z,5.53
2022-12-14T12:31:27.066Z,8.82
2022-12-14T12:37:17.463Z,6.00
2022-12-14T12:42:46.226Z,15.13
2022-12-14T12:48:17.469Z,4.18
2022-12-14T12:53:47.090Z,14.15
2022-12-14T12:59:19.085Z,2.80
2022-12-14T13:04:45.475Z,4.82
2022-12-14T13:10:21.573Z,10.93
2022-12-14T13:16:03.939Z,3.50
2022-12-14T13:21:36.828Z,5.10
2022-12-14T13:27:17.909Z,1.00
2022-12-14T13:33:13.819Z,2.45
2022-12-14T13:38:46.332Z,2.40
2022-12-14T13:45:00.119Z,1.27
2022-12-14T13:50:36.347Z,1.17
2022-12-14T13:56:00.998Z,4.97
2022-12-14T14:01:23.226Z,1.10
2022-12-14T14:06:46.990Z,3.55
2022-12-14T14:12:32.251Z,5.57
2022-12-14T14:17:55.998Z,1.08
2022-12-14T14:23:17.922Z,5.13
2022-12-14T14:28:40.325Z,2.13
2022-12-14T14:34:02.551Z,2.25
2022-12-14T14:39:56.108Z,6.97
2022-12-14T14:45:32.311Z,5.03
2022-12-14T14:51:12.716Z,5.85
2022-12-14T14:56:40.339Z,1.15
2022-12-14T15:02:18.671Z,3.85
2022-12-14T15:07:45.267Z,1.27
2022-12-14T15:13:19.630Z,1.25
2022-12-14T15:18:42.053Z,1.10
2022-12-14T15:24:04.572Z,3.35
2022-12-14T15:29:29.082Z,3.53
2022-12-14T15:35:03.248Z,8.65
2022-12-14T15:40:27.938Z,1.25
2022-12-14T15:45:56.444Z,2.95
2022-12-14T15:51:19.575Z,1.08
2022-12-14T15:56:45.690Z,2.20
2022-12-14T16:02:24.554Z,2.13
2022-12-14T16:07:50.613Z,7.38
2022-12-14T16:13:26.747Z,7.35
2022-12-14T16:18:51.590Z,5.30
2022-12-14T16:24:25.017Z,2.10
2022-12-14T16:30:25.007Z,2.38
2022-12-14T16:35:58.216Z,2.63
2022-12-14T16:41:20.290Z,1.88
2022-12-14T16:46:56.378Z,2.03
2022-12-14T16:52:20.932Z,1.67
2022-12-14T16:57:54.019Z,2.85
2022-12-14T17:03:27.173Z,2.85
2022-12-14T17:08:49.499Z,1.38
2022-12-14T17:14:11.968Z,8.57
2022-12-14T17:19:39.544Z,1.60
2022-12-14T17:25:04.618Z,2.55
2022-12-14T17:30:27.350Z,4.13
2022-12-14T17:35:49.410Z,5.82
2022-12-14T17:41:21.160Z,1.42
2022-12-14T17:46:46.025Z,1.50
2022-12-14T17:52:16.450Z,1.40
2022-12-14T17:57:38.591Z,1.40
2022-12-14T18:03:00.766Z,1.50
2022-12-14T18:08:24.790Z,1.40
2022-12-14T18:13:47.521Z,1.98
2022-12-14T18:19:10.453Z,1.40
2022-12-14T18:24:32.512Z,1.40
2022-12-14T18:29:54.091Z,1.52
2022-12-14T18:35:21.780Z,2.25
2022-12-14T18:40:49.629Z,1.85
2022-12-14T18:46:12.294Z,2.10
2022-12-14T18:51:34.319Z,1.63
2022-12-14T18:56:56.139Z,1.50
2022-12-14T19:02:18.404Z,1.40
2022-12-14T19:07:40.446Z,8.52
2022-12-14T19:13:02.927Z,1.63
2022-12-14T19:18:25.238Z,1.55
2022-12-14T19:23:47.731Z,1.60
2022-12-14T19:29:09.541Z,1.60
2022-12-14T19:34:31.877Z,2.20
2022-12-14T19:39:54.631Z,1.40
2022-12-14T19:45:17.730Z,1.92
2022-12-14T19:50:39.971Z,1.70
2022-12-14T19:56:01.792Z,1.67
2022-12-14T20:01:24.712Z,1.50
2022-12-14T20:06:47.000Z,4.13
2022-12-14T20:12:12.985Z,1.40
2022-12-14T20:17:38.528Z,2.35
2022-12-14T20:23:00.697Z,2.35
2022-12-14T20:28:23.118Z,1.83
2022-12-14T20:33:45.840Z,1.40
2022-12-14T20:39:07.728Z,1.40
2022-12-14T20:44:30.190Z,1.42
2022-12-14T20:49:52.556Z,4.03
2022-12-14T20:55:14.678Z,1.50
2022-12-14T21:00:37.641Z,4.05
2022-12-14T21:06:02.831Z,3.47
2022-12-14T21:11:43.379Z,2.58
2022-12-14T21:17:06.417Z,3.55
2022-12-14T21:22:31.160Z,1.50
2022-12-14T21:27:53.839Z,2.47
2022-12-14T21:33:15.920Z,2.25
2022-12-14T21:38:38.358Z,1.75
2022-12-14T21:44:00.541Z,1.60
2022-12-14T21:49:22.480Z,1.58
2022-12-14T21:54:44.582Z,2.28
2022-12-14T22:00:09.200Z,2.85
2022-12-14T22:05:34.319Z,1.40
2022-12-14T22:10:56.228Z,2.35
2022-12-14T22:16:20.599Z,5.88
2022-12-14T22:21:42.738Z,8.27
2022-12-14T22:27:04.761Z,3.15
2022-12-14T22:32:26.729Z,3.20
2022-12-14T22:37:48.577Z,8.32
2022-12-14T22:43:10.452Z,3.83
2022-12-14T22:48:34.361Z,3.42
2022-12-14T22:53:56.291Z,2.83
2022-12-14T22:59:25.741Z,5.60
2022-12-14T23:04:51.027Z,9.60
2022-12-14T23:10:31.940Z,5.80
2022-12-14T23:16:12.590Z,4.25
2022-12-14T23:21:53.260Z,1.40
2022-12-14T23:27:33.969Z,3.70
2022-12-14T23:33:16.139Z,3.03
2022-12-14T23:38:57.581Z,1.67
2022-12-14T23:44:38.480Z,4.05
2022-12-14T23:50:19.238Z,2.75
2022-12-14T23:56:00.054Z,1.40
